createdAt,value
2018-11-23T00:01:52.730Z,98462.39
2018-11-23T00:04:23.465Z,98464.09
2018-11-23T00:06:54.441Z,98455.56
2018-11-23T00:09:25.325Z,98456.02
2018-11-23T00:11:56.605Z,98457.39
2018-11-23T00:14:27.812Z,98461.61
2018-11-23T00:16:58.875Z,98462.98
2018-11-23T00:19:30.099Z,98465.19
2018-11-23T00:22:01.148Z,98464.83
2018-11-23T00:24:32.074Z,98458.62
2018-11-23T00:27:03.253Z,98463.97
2018-11-23T00:29:34.152Z,98461.44
2018-11-23T00:32:05.313Z,98456.25
2018-11-23T00:34:36.236Z,98457.22
2018-11-23T00:37:08.252Z,98461.98
2018-11-23T00:39:39.128Z,98461.57
2018-11-23T00:42:10.101Z,98455.14
2018-11-23T00:44:40.936Z,98462.48
2018-11-23T00:47:12.622Z,98455.31
2018-11-23T00:49:43.701Z,98458.27
2018-11-23T00:52:14.648Z,98455.31
2018-11-23T00:54:45.689Z,98463.98
2018-11-23T00:57:16.643Z,98461.95
2018-11-23T00:59:47.992Z,98463.66
2018-11-23T01:02:19.033Z,98456.86
2018-11-23T01:04:49.640Z,98462.87
2018-11-23T01:07:20.824Z,98467.68
2018-11-23T01:09:51.738Z,98468.22
2018-11-23T01:12:22.869Z,98473.40
2018-11-23T01:14:53.893Z,98469.05
2018-11-23T01:17:24.752Z,98475.47
2018-11-23T01:19:55.742Z,98476.34
2018-11-23T01:22:26.760Z,98482.23
2018-11-23T01:24:57.678Z,98485.63
2018-11-23T01:27:28.758Z,98488.73
2018-11-23T01:29:59.668Z,98493.46
2018-11-23T01:32:30.653Z,98497.85
2018-11-23T01:35:02.754Z,98497.02
2018-11-23T01:37:35.958Z,98496.48
2018-11-23T01:40:08.750Z,98497.81
2018-11-23T01:42:39.645Z,98492.75
2018-11-23T01:45:11.899Z,98497.09
2018-11-23T01:47:42.896Z,98490.88
2018-11-23T01:50:17.051Z,98490.55
2018-11-23T01:52:49.385Z,98495.45
2018-11-23T01:55:21.603Z,98497.36
2018-11-23T01:57:52.597Z,98497.32
2018-11-23T02:00:25.281Z,98498.48
2018-11-23T02:02:57.238Z,98495.42
2018-11-23T02:05:28.119Z,98493.61
2018-11-23T02:07:58.969Z,98499.98
2018-11-23T02:10:29.917Z,98509.19
2018-11-23T02:13:01.066Z,98501.70
2018-11-23T02:15:31.976Z,98497.44
2018-11-23T02:18:03.240Z,98489.39
2018-11-23T02:20:34.269Z,98493.70
2018-11-23T02:23:07.397Z,98495.02
2018-11-23T02:25:38.304Z,98492.00
2018-11-23T02:28:09.258Z,98492.04
2018-11-23T02:30:40.293Z,98489.77
2018-11-23T02:33:11.368Z,98488.98
2018-11-23T02:35:42.377Z,98495.81
2018-11-23T02:38:13.388Z,98482.97
2018-11-23T02:40:44.351Z,98477.87
2018-11-23T02:43:15.228Z,98466.34
2018-11-23T02:45:46.306Z,98472.11
2018-11-23T02:48:17.252Z,98462.28
2018-11-23T02:50:48.305Z,98457.56
2018-11-23T02:53:19.325Z,98452.42
2018-11-23T02:55:50.199Z,98454.50
2018-11-23T02:58:21.838Z,98448.86
2018-11-23T03:00:52.886Z,98446.29
2018-11-23T03:03:23.898Z,98445.92
2018-11-23T03:05:55.572Z,98444.67
2018-11-23T03:08:26.481Z,98446.91
2018-11-23T03:10:57.461Z,98449.90
2018-11-23T03:13:28.367Z,98448.61
2018-11-23T03:15:59.317Z,98443.48
2018-11-23T03:18:30.285Z,98449.53
2018-11-23T03:21:01.266Z,98445.34
2018-11-23T03:23:32.127Z,98447.04
2018-11-23T03:26:02.944Z,98447.91
2018-11-23T03:28:34.021Z,98447.53
2018-11-23T03:31:12.318Z,98448.02
2018-11-23T03:33:36.138Z,98444.22
2018-11-23T03:36:07.241Z,98451.51
2018-11-23T03:38:38.402Z,98453.70
2018-11-23T03:41:09.284Z,98457.97
2018-11-23T03:43:40.630Z,98462.69
2018-11-23T03:46:11.511Z,98449.89
2018-11-23T03:48:42.448Z,98451.66
2018-11-23T03:51:13.557Z,98452.58
2018-11-23T03:53:44.513Z,98456.39
2018-11-23T03:56:15.834Z,98457.67
2018-11-23T03:58:47.311Z,98458.95
2018-11-23T04:01:18.440Z,98466.24
2018-11-23T04:03:49.405Z,98459.86
2018-11-23T04:06:22.274Z,98457.17
2018-11-23T04:08:53.401Z,98464.13
2018-11-23T04:11:24.363Z,98465.00
2018-11-23T04:13:55.732Z,98456.92
2018-11-23T04:16:26.647Z,98460.36
2018-11-23T04:18:57.629Z,98463.79
2018-11-23T04:21:28.534Z,98456.01
2018-11-23T04:23:59.463Z,98455.06
2018-11-23T04:26:30.609Z,98457.25
2018-11-23T04:29:01.642Z,98454.23
2018-11-23T04:31:32.596Z,98447.81
2018-11-23T04:34:03.601Z,98447.89
2018-11-23T04:36:34.761Z,98443.92
2018-11-23T04:39:07.777Z,98443.80
2018-11-23T04:41:46.256Z,98440.07
2018-11-23T04:44:11.145Z,98439.28
2018-11-23T04:46:42.020Z,98439.73
2018-11-23T04:49:12.912Z,98445.78
2018-11-23T04:51:43.785Z,98441.52
2018-11-23T04:54:15.456Z,98447.10
2018-11-23T04:56:46.352Z,98445.86
2018-11-23T04:59:17.489Z,98444.53
2018-11-23T05:01:48.428Z,98447.10
2018-11-23T05:04:19.352Z,98448.84
2018-11-23T05:06:50.408Z,98450.99
2018-11-23T05:09:22.232Z,98448.46
2018-11-23T05:11:53.300Z,98439.11
2018-11-23T05:14:24.264Z,98443.75
2018-11-23T05:16:55.109Z,98445.48
2018-11-23T05:19:25.984Z,98448.70
2018-11-23T05:21:56.933Z,98443.30
2018-11-23T05:24:27.906Z,98442.52
2018-11-23T05:26:58.825Z,98444.74
2018-11-23T05:29:29.792Z,98443.95
2018-11-23T05:32:00.817Z,98437.16
2018-11-23T05:34:32.289Z,98437.23
2018-11-23T05:37:03.205Z,98436.93
2018-11-23T05:39:34.752Z,98433.91
2018-11-23T05:42:05.996Z,98435.20
2018-11-23T05:44:37.024Z,98437.61
2018-11-23T05:47:08.000Z,98427.91
2018-11-23T05:49:38.937Z,98422.36
2018-11-23T05:52:09.857Z,98422.63
2018-11-23T05:54:41.180Z,98416.66
2018-11-23T05:57:12.138Z,98419.84
2018-11-23T05:59:43.490Z,98419.64
2018-11-23T06:02:14.392Z,98420.52
2018-11-23T06:04:45.528Z,98425.88
2018-11-23T06:07:16.704Z,98430.97
2018-11-23T06:09:47.926Z,98429.91
2018-11-23T06:12:19.253Z,98426.97
2018-11-23T06:14:51.428Z,98426.09
2018-11-23T06:17:22.280Z,98421.88
2018-11-23T06:19:53.552Z,98418.48
2018-11-23T06:22:24.496Z,98420.33
2018-11-23T06:24:55.648Z,98418.05
2018-11-23T06:27:26.556Z,98420.88
2018-11-23T06:29:58.251Z,98415.70
2018-11-23T06:32:46.274Z,98421.73
2018-11-23T06:35:17.210Z,98418.79
2018-11-23T06:37:48.872Z,98418.79
2018-11-23T06:40:20.038Z,98422.08
2018-11-23T06:42:50.979Z,98417.09
2018-11-23T06:45:22.218Z,98420.11
2018-11-23T06:47:53.936Z,98420.83
2018-11-23T06:50:24.892Z,98419.93
2018-11-23T06:52:56.741Z,98421.90
2018-11-23T06:55:27.657Z,98424.31
2018-11-23T06:57:59.213Z,98418.73
2018-11-23T07:00:30.288Z,98423.41
2018-11-23T07:03:01.557Z,98419.88
2018-11-23T07:05:33.361Z,98420.10
2018-11-23T07:08:04.835Z,98417.08
2018-11-23T07:10:35.828Z,98418.59
2018-11-23T07:13:07.357Z,98420.52
2018-11-23T07:15:38.607Z,98418.05
2018-11-23T07:18:09.485Z,98418.08
2018-11-23T07:20:41.049Z,98423.13
2018-11-23T07:23:11.966Z,98422.22
2018-11-23T07:25:43.028Z,98421.70
2018-11-23T07:28:15.636Z,98422.55
2018-11-23T07:30:44.964Z,98421.80
2018-11-23T07:33:15.808Z,98417.58
2018-11-23T07:35:46.722Z,98426.07
2018-11-23T07:38:17.756Z,98430.61
2018-11-23T07:41:05.605Z,98426.94
2018-11-23T07:43:36.579Z,98428.03
2018-11-23T07:46:07.632Z,98430.63
2018-11-23T07:48:38.665Z,98435.28
2018-11-23T07:51:09.620Z,98429.73
2018-11-23T07:53:40.472Z,98430.66
2018-11-23T07:56:11.384Z,98433.08
2018-11-23T07:58:42.308Z,98430.92
2018-11-23T08:01:13.385Z,98430.72
2018-11-23T08:03:44.796Z,98429.36
2018-11-23T08:06:15.845Z,98432.38
2018-11-23T08:08:46.465Z,98432.66
2018-11-23T08:11:17.424Z,98433.51
2018-11-23T08:13:48.292Z,98431.05
2018-11-23T08:16:19.317Z,98425.55
2018-11-23T08:18:50.226Z,98418.69
2018-11-23T08:21:21.413Z,98420.88
2018-11-23T08:23:52.536Z,98426.61
2018-11-23T08:26:23.680Z,98427.55
2018-11-23T08:28:54.655Z,98419.77
2018-11-23T08:31:25.677Z,98423.34
2018-11-23T08:33:56.580Z,98419.17
2018-11-23T08:36:27.645Z,98417.80
2018-11-23T08:39:04.611Z,98420.78
2018-11-23T08:41:30.253Z,98412.20
2018-11-23T08:44:01.045Z,98406.02
2018-11-23T08:46:32.034Z,98398.01
2018-11-23T08:49:03.685Z,98399.05
2018-11-23T08:51:34.875Z,98390.25
2018-11-23T08:54:06.381Z,98392.71
2018-11-23T08:56:37.001Z,98393.97
2018-11-23T08:59:07.913Z,98387.51
2018-11-23T09:01:39.850Z,98392.25
2018-11-23T09:04:10.896Z,98387.11
2018-11-23T09:06:41.839Z,98392.34
2018-11-23T09:09:12.896Z,98397.27
2018-11-23T09:11:43.828Z,98390.15
2018-11-23T09:14:14.692Z,98392.72
2018-11-23T09:16:45.682Z,98390.82
2018-11-23T09:19:17.445Z,98384.47
2018-11-23T09:21:48.387Z,98384.58
2018-11-23T09:24:19.412Z,98382.17
2018-11-23T09:26:50.361Z,98373.90
2018-11-23T09:29:21.641Z,98375.44
2018-11-23T09:31:52.860Z,98375.06
2018-11-23T09:34:23.785Z,98380.44
2018-11-23T09:36:54.707Z,98383.41
2018-11-23T09:39:25.761Z,98397.20
2018-11-23T09:41:56.718Z,98396.76
2018-11-23T09:44:27.649Z,98401.16
2018-11-23T09:46:58.313Z,98396.09
2018-11-23T09:49:29.250Z,98395.22
2018-11-23T09:52:00.779Z,98397.92
2018-11-23T09:54:31.726Z,98390.63
2018-11-23T09:57:02.449Z,98391.75
2018-11-23T09:59:33.986Z,98392.70
2018-11-23T10:02:04.538Z,98397.39
2018-11-23T10:04:35.267Z,98389.41
2018-11-23T10:07:06.591Z,98383.23
2018-11-23T10:09:37.524Z,98376.55
2018-11-23T10:12:08.147Z,98377.76
2018-11-23T10:14:38.816Z,98376.30
2018-11-23T10:17:09.493Z,98374.75
2018-11-23T10:19:40.392Z,98381.64
2018-11-23T10:22:11.125Z,98372.80
2018-11-23T10:24:41.730Z,98369.11
2018-11-23T10:27:12.506Z,98362.44
2018-11-23T10:29:43.061Z,98367.84
2018-11-23T10:32:13.700Z,98369.36
2018-11-23T10:34:44.679Z,98365.45
2018-11-23T10:37:15.406Z,98360.93
2018-11-23T10:39:46.301Z,98352.11
2018-11-23T10:42:17.801Z,98353.78
2018-11-23T10:44:48.414Z,98349.41
2018-11-23T10:47:19.183Z,98334.44
2018-11-23T10:49:50.816Z,98314.98
2018-11-23T10:52:22.017Z,98312.77
2018-11-23T10:54:52.740Z,98313.14
2018-11-23T10:57:24.460Z,98304.80
2018-11-23T10:59:55.153Z,98299.77
2018-11-23T11:02:31.757Z,98304.04
2018-11-23T11:06:07.535Z,98290.40
2018-11-23T11:08:39.136Z,98282.78
2018-11-23T11:11:13.507Z,98280.17
2018-11-23T11:13:40.713Z,98287.61
2018-11-23T11:16:12.400Z,98274.77
2018-11-23T11:18:43.117Z,98267.25
2018-11-23T11:21:13.757Z,98257.57
2018-11-23T11:23:44.560Z,98256.53
2018-11-23T11:26:15.313Z,98250.97
2018-11-23T11:28:45.620Z,98246.02
2018-11-23T11:31:16.408Z,98250.75
2018-11-23T11:33:47.101Z,98240.28
2018-11-23T11:36:17.932Z,98240.70
2018-11-23T11:38:48.652Z,98236.31
2018-11-23T11:41:19.524Z,98227.77
2018-11-23T11:43:50.212Z,98221.41
2018-11-23T11:46:20.841Z,98212.69
2018-11-23T11:48:51.496Z,98213.17
2018-11-23T11:51:22.765Z,98211.72
2018-11-23T11:53:53.370Z,98216.55
2018-11-23T11:56:25.104Z,98202.89
2018-11-23T11:58:55.693Z,98199.53
2018-11-23T12:01:27.128Z,98194.69
2018-11-23T12:03:59.448Z,98184.62
2018-11-23T12:06:30.557Z,98187.18
2018-11-23T12:09:01.401Z,98198.27
2018-11-23T12:11:31.970Z,98186.36
2018-11-23T12:14:03.045Z,98190.12
2018-11-23T12:16:33.661Z,98185.26
2018-11-23T12:19:04.309Z,98190.84
2018-11-23T12:21:35.137Z,98185.88
2018-11-23T12:24:06.109Z,98182.50
2018-11-23T12:26:37.880Z,98170.63
2018-11-23T12:29:08.449Z,98168.77
2018-11-23T12:31:39.008Z,98168.95
2018-11-23T12:34:09.904Z,98162.83
2018-11-23T12:36:40.712Z,98161.72
2018-11-23T12:39:12.213Z,98156.36
2018-11-23T12:41:42.797Z,98151.73
2018-11-23T12:44:13.421Z,98153.03
2018-11-23T12:46:44.056Z,98155.92
2018-11-23T12:49:15.031Z,98161.59
2018-11-23T12:51:46.096Z,98172.19
2018-11-23T12:54:16.725Z,98166.79
2018-11-23T12:56:47.473Z,98164.95
2018-11-23T12:59:18.471Z,98144.13
2018-11-23T13:01:49.232Z,98157.72
2018-11-23T13:04:19.933Z,98155.75
2018-11-23T13:06:50.910Z,98153.08
2018-11-23T13:09:21.522Z,98144.97
2018-11-23T13:11:52.356Z,98147.95
2018-11-23T13:14:22.960Z,98160.56
2018-11-23T13:16:53.716Z,98147.11
2018-11-23T13:19:24.675Z,98152.29
2018-11-23T13:21:55.389Z,98148.20
2018-11-23T13:24:26.358Z,98159.72
2018-11-23T13:26:57.095Z,98159.72
2018-11-23T13:29:27.810Z,98156.48
2018-11-23T13:31:58.724Z,98152.77
2018-11-23T13:34:29.616Z,98146.36
2018-11-23T13:37:00.410Z,98143.96
2018-11-23T13:39:31.336Z,98140.98
2018-11-23T13:42:02.274Z,98135.57
2018-11-23T13:44:33.599Z,98140.36
2018-11-23T13:47:04.864Z,98132.10
2018-11-23T13:49:35.397Z,98140.34
2018-11-23T13:52:06.578Z,98139.80
2018-11-23T13:54:37.261Z,98140.92
2018-11-23T13:57:08.545Z,98143.39
2018-11-23T13:59:39.546Z,98134.09
2018-11-23T14:02:10.317Z,98137.51
2018-11-23T14:04:41.001Z,98130.33
2018-11-23T14:07:12.533Z,98140.52
2018-11-23T14:09:43.217Z,98130.50
2018-11-23T14:12:14.246Z,98128.59
2018-11-23T14:14:45.009Z,98120.14
2018-11-23T14:17:15.592Z,98111.88
2018-11-23T14:19:46.245Z,98112.57
2018-11-23T14:22:17.197Z,98110.75
2018-11-23T14:24:48.057Z,98111.83
2018-11-23T14:27:18.737Z,98111.64
2018-11-23T14:29:49.704Z,98110.08
2018-11-23T14:32:20.628Z,98102.06
2018-11-23T14:34:51.598Z,98094.84
2018-11-23T14:37:22.589Z,98103.77
2018-11-23T14:39:53.953Z,98099.57
2018-11-23T14:42:24.887Z,98103.70
2018-11-23T14:44:55.574Z,98090.99
2018-11-23T14:47:26.732Z,98085.80
2018-11-23T14:49:57.760Z,98091.92
2018-11-23T14:52:28.814Z,98081.73
2018-11-23T14:54:59.787Z,98090.96
2018-11-23T14:57:30.742Z,98097.12
2018-11-23T15:00:01.769Z,98098.88
2018-11-23T15:02:32.904Z,98098.02
2018-11-23T15:05:03.939Z,98093.54
2018-11-23T15:07:35.521Z,98095.22
2018-11-23T15:10:11.292Z,98096.74
2018-11-23T15:12:42.639Z,98099.68
2018-11-23T15:15:16.358Z,98098.14
2018-11-23T15:17:48.493Z,98097.31
2018-11-23T15:20:23.236Z,98099.68
2018-11-23T15:22:58.841Z,98096.40
2018-11-23T15:25:30.829Z,98097.02
2018-11-23T15:28:01.696Z,98090.69
2018-11-23T15:30:33.961Z,98098.98
2018-11-23T15:33:05.612Z,98099.98
2018-11-23T15:35:38.470Z,98088.09
2018-11-23T15:38:13.624Z,98094.03
2018-11-23T15:40:44.620Z,98096.77
2018-11-23T15:43:16.564Z,98089.84
2018-11-23T15:45:47.717Z,98082.16
2018-11-23T15:48:18.624Z,98079.97
2018-11-23T15:50:50.034Z,98085.29
2018-11-23T15:53:20.776Z,98097.82
2018-11-23T15:55:51.894Z,98090.14
2018-11-23T15:58:22.810Z,98094.09
2018-11-23T16:00:53.778Z,98082.16
2018-11-23T16:03:24.925Z,98086.19
2018-11-23T16:05:56.073Z,98082.38
2018-11-23T16:08:27.017Z,98084.75
2018-11-23T16:10:57.941Z,98083.16
2018-11-23T16:13:28.870Z,98080.94
2018-11-23T16:15:59.984Z,98081.08
2018-11-23T16:18:31.121Z,98091.14
2018-11-23T16:21:02.082Z,98080.70
2018-11-23T16:23:32.941Z,98080.63
2018-11-23T16:26:03.557Z,98087.80
2018-11-23T16:28:34.600Z,98088.52
2018-11-23T16:31:05.468Z,98085.97
2018-11-23T16:33:37.989Z,98080.48
2018-11-23T16:36:09.377Z,98083.44
2018-11-23T16:38:40.254Z,98079.02
2018-11-23T16:41:11.341Z,98074.39
2018-11-23T16:43:42.395Z,98065.34
2018-11-23T16:46:14.976Z,98065.20
2018-11-23T16:48:47.328Z,98066.70
2018-11-23T16:51:18.245Z,98061.45
2018-11-23T16:53:49.414Z,98055.41
2018-11-23T16:56:20.608Z,98048.02
2018-11-23T16:58:51.480Z,98044.37
2018-11-23T17:01:22.413Z,98035.14
2018-11-23T17:03:53.366Z,98029.44
2018-11-23T17:06:24.398Z,98019.80
2018-11-23T17:08:55.460Z,98017.80
2018-11-23T17:11:26.899Z,98023.44
2018-11-23T17:13:58.229Z,98019.41
2018-11-23T17:16:29.308Z,98017.88
2018-11-23T17:19:00.277Z,98012.95
2018-11-23T17:21:31.257Z,98011.19
2018-11-23T17:24:02.187Z,98001.33
2018-11-23T17:26:33.104Z,98007.88
2018-11-23T17:29:04.071Z,97993.03
2018-11-23T17:31:35.346Z,97985.59
2018-11-23T17:34:06.859Z,97987.48
2018-11-23T17:36:37.881Z,97992.19
2018-11-23T17:39:09.992Z,97997.28
2018-11-23T17:41:41.099Z,97995.24
2018-11-23T17:44:12.021Z,97981.41
2018-11-23T17:46:42.958Z,97975.70
2018-11-23T17:49:14.044Z,97977.38
2018-11-23T17:51:45.094Z,97972.52
2018-11-23T17:54:16.204Z,97963.90
2018-11-23T17:56:47.199Z,97956.78
2018-11-23T17:59:18.273Z,97948.16
2018-11-23T18:01:49.291Z,97942.48
2018-11-23T18:04:20.189Z,97943.55
2018-11-23T18:06:51.086Z,97932.97
2018-11-23T18:09:22.146Z,97921.19
2018-11-23T18:11:53.201Z,97920.80
2018-11-23T18:14:24.105Z,97934.02
2018-11-23T18:16:55.475Z,97933.13
2018-11-23T18:19:27.109Z,97931.36
2018-11-23T18:21:58.104Z,97921.95
2018-11-23T18:24:29.232Z,97914.48
2018-11-23T18:27:00.226Z,97907.87
2018-11-23T18:29:31.198Z,97910.41
2018-11-23T18:32:03.477Z,97904.37
2018-11-23T18:34:34.385Z,97899.05
2018-11-23T18:37:05.953Z,97893.95
2018-11-23T18:39:36.905Z,97893.38
2018-11-23T18:42:08.178Z,97892.52
2018-11-23T18:44:40.095Z,97881.97
2018-11-23T18:47:11.233Z,97864.39
2018-11-23T18:49:42.275Z,97858.71
2018-11-23T18:52:13.565Z,97854.45
2018-11-23T18:54:44.669Z,97853.46
2018-11-23T18:57:15.628Z,97854.67
2018-11-23T18:59:46.636Z,97862.59
2018-11-23T19:02:17.854Z,97861.80
2018-11-23T19:04:49.136Z,97851.11
2018-11-23T19:07:20.369Z,97849.43
2018-11-23T19:09:51.425Z,97844.81
2018-11-23T19:12:22.353Z,97834.47
2018-11-23T19:14:53.285Z,97830.20
2018-11-23T19:17:24.437Z,97829.89
2018-11-23T19:19:56.583Z,97833.84
2018-11-23T19:22:26.404Z,97831.73
2018-11-23T19:24:57.332Z,97832.12
2018-11-23T19:27:28.309Z,97839.48
2018-11-23T19:29:59.225Z,97840.81
2018-11-23T19:32:30.181Z,97838.03
2018-11-23T19:35:02.200Z,97822.38
2018-11-23T19:37:33.249Z,97826.52
2018-11-23T19:40:05.660Z,97819.63
2018-11-23T19:42:36.588Z,97808.81
2018-11-23T19:45:13.151Z,97799.37
2018-11-23T19:47:44.152Z,97799.11
2018-11-23T19:50:17.868Z,97795.97
2018-11-23T19:52:49.147Z,97791.83
2018-11-23T19:55:20.084Z,97783.37
2018-11-23T19:57:51.061Z,97786.50
2018-11-23T20:00:24.776Z,97801.39
2018-11-23T20:02:55.820Z,97797.16
2018-11-23T20:05:27.199Z,97796.84
2018-11-23T20:07:58.853Z,97803.97
2018-11-23T20:10:30.002Z,97800.72
2018-11-23T20:13:01.005Z,97800.02
2018-11-23T20:15:32.104Z,97792.81
2018-11-23T20:18:03.671Z,97793.87
2018-11-23T20:20:34.684Z,97797.81
2018-11-23T20:23:06.384Z,97801.69
2018-11-23T20:25:38.091Z,97803.66
2018-11-23T20:28:09.805Z,97798.29
2018-11-23T20:30:42.561Z,97797.97
2018-11-23T20:33:12.125Z,97800.41
2018-11-23T20:35:43.182Z,97803.66
2018-11-23T20:38:14.477Z,97801.39
2018-11-23T20:40:45.971Z,97808.94
2018-11-23T20:43:16.886Z,97809.69
2018-11-23T20:45:48.092Z,97821.16
2018-11-23T20:48:20.017Z,97821.16
2018-11-23T20:50:51.185Z,97816.89
2018-11-23T20:53:22.191Z,97816.73
2018-11-23T20:55:53.441Z,97817.67
2018-11-23T20:58:24.393Z,97810.59
2018-11-23T21:00:55.421Z,97808.59
2018-11-23T21:03:26.369Z,97807.38
2018-11-23T21:05:57.340Z,97803.50
2018-11-23T21:08:28.524Z,97797.97
2018-11-23T21:10:59.417Z,97796.13
2018-11-23T21:13:30.554Z,97791.05
2018-11-23T21:16:01.575Z,97784.81
2018-11-23T21:18:32.731Z,97782.58
2018-11-23T21:21:03.671Z,97786.18
2018-11-23T21:23:34.566Z,97787.91
2018-11-23T21:26:05.981Z,97787.00
2018-11-23T21:28:36.856Z,97780.94
2018-11-23T21:31:07.895Z,97781.02
2018-11-23T21:33:38.984Z,97776.75
2018-11-23T21:36:10.040Z,97769.38
2018-11-23T21:38:41.059Z,97765.03
2018-11-23T21:41:12.269Z,97757.52
2018-11-23T21:43:43.333Z,97757.52
2018-11-23T21:46:14.285Z,97759.72
2018-11-23T21:48:45.306Z,97763.76
2018-11-23T21:51:16.538Z,97761.95
2018-11-23T21:53:47.414Z,97764.06
2018-11-23T21:56:18.733Z,97759.80
2018-11-23T21:58:56.456Z,97750.32
2018-11-23T22:01:27.462Z,97744.91
2018-11-23T22:03:58.671Z,97736.84
2018-11-23T22:06:29.767Z,97732.97
2018-11-23T22:09:00.753Z,97730.71
2018-11-23T22:11:31.731Z,97731.84
2018-11-23T22:14:03.351Z,97730.00
2018-11-23T22:16:34.560Z,97722.16
2018-11-23T22:19:05.780Z,97724.31
2018-11-23T22:21:36.692Z,97722.47
2018-11-23T22:24:07.648Z,97715.45
2018-11-23T22:26:40.504Z,97710.12
2018-11-23T22:29:11.497Z,97703.66
2018-11-23T22:31:42.473Z,97699.78
2018-11-23T22:34:13.550Z,97699.78
2018-11-23T22:36:44.657Z,97697.50
2018-11-23T22:39:15.802Z,97682.66
2018-11-23T22:41:46.664Z,97685.46
2018-11-23T22:44:17.593Z,97679.90
2018-11-23T22:46:49.444Z,97676.19
2018-11-23T22:49:20.665Z,97671.41
2018-11-23T22:51:51.781Z,97669.48
2018-11-23T22:54:23.445Z,97666.63
2018-11-23T22:56:54.420Z,97661.37
2018-11-23T22:59:25.592Z,97665.98
2018-11-23T23:01:56.633Z,97665.33
2018-11-23T23:04:27.789Z,97663.27
2018-11-23T23:06:58.708Z,97653.73
2018-11-23T23:09:29.735Z,97648.00
2018-11-23T23:12:01.058Z,97655.41
2018-11-23T23:14:32.101Z,97644.59
2018-11-23T23:17:03.072Z,97650.98
2018-11-23T23:19:33.962Z,97647.41
2018-11-23T23:22:05.046Z,97636.45
2018-11-23T23:24:36.098Z,97627.33
2018-11-23T23:27:07.234Z,97630.77
2018-11-23T23:29:39.187Z,97630.00
2018-11-23T23:32:10.432Z,97625.87
2018-11-23T23:34:42.249Z,97622.29
2018-11-23T23:37:13.217Z,97618.62
2018-11-23T23:39:44.096Z,97616.05
2018-11-23T23:42:14.969Z,97607.27
2018-11-23T23:44:46.249Z,97600.71
2018-11-23T23:47:17.264Z,97596.75
2018-11-23T23:49:48.243Z,97586.31
2018-11-23T23:52:19.154Z,97585.84
2018-11-23T23:54:50.095Z,97587.95
2018-11-23T23:57:21.124Z,97591.66
2018-11-23T23:59:52.197Z,97596.19
